Time;durP1;ratioP1;P1;durP2;ratioP2;P2;SDS_P1;SDS_P2;PMS_P1;PMS_P2;Temp;Humidity;BMP_temperature;BMP_pressure;BME280_temperature;BME280_humidity;BME280_pressure;Samples;Min_cycle;Max_cycle;Signal;HPM_P1;HPM_P2
2023/03/29 00:00:36;;;;;;;3.20;2.35;;;;;;;7.12;100.00;101669.66;5066193;28;20035;-61
2023/03/29 00:03:02;;;;;;;2.42;2.10;;;;;;;7.07;100.00;101680.16;5066556;28;20429;-62
2023/03/29 00:05:32;;;;;;;4.47;2.60;;;;;;;7.16;100.00;101673.97;5066568;28;20029;-62
2023/03/29 00:08:00;;;;;;;3.97;2.70;;;;;;;7.27;100.00;101671.31;5066441;28;20068;-62
2023/03/29 00:10:26;;;;;;;6.97;3.08;;;;;;;7.20;100.00;101659.13;5066555;28;20024;-62
2023/03/29 00:12:52;;;;;;;6.00;2.58;;;;;;;7.32;100.00;101647.69;5064518;28;20029;-58
2023/03/29 00:15:17;;;;;;;5.32;3.38;;;;;;;7.31;100.00;101643.28;5064122;28;20620;-62
2023/03/29 00:17:43;;;;;;;2.97;2.33;;;;;;;7.31;100.00;101644.19;5065609;28;20024;-61
2023/03/29 00:20:09;;;;;;;4.40;2.38;;;;;;;7.28;100.00;101641.56;5065482;28;20078;-57
2023/03/29 00:22:35;;;;;;;6.80;2.60;;;;;;;7.40;100.00;101640.63;5047277;28;20047;-61
2023/03/29 00:25:01;;;;;;;4.78;2.60;;;;;;;7.47;100.00;101641.44;5065481;28;20021;-61
2023/03/29 00:27:26;;;;;;;6.13;2.85;;;;;;;7.47;100.00;101641.44;5064022;28;20493;-59
2023/03/29 00:29:52;;;;;;;4.85;2.80;;;;;;;7.50;100.00;101640.53;5063683;28;20513;-58
2023/03/29 00:32:17;;;;;;;5.40;2.55;;;;;;;7.51;100.00;101640.53;5065843;28;20526;-61
2023/03/29 00:34:44;;;;;;;6.13;2.40;;;;;;;7.55;100.00;101644.00;5064087;28;20375;-59
2023/03/29 00:37:11;;;;;;;4.15;2.45;;;;;;;7.54;100.00;101624.78;5065393;28;20043;-58
2023/03/29 00:39:36;;;;;;;4.28;2.63;;;;;;;7.63;100.00;101622.94;5064637;28;20032;-57
2023/03/29 00:42:02;;;;;;;4.45;2.53;;;;;;;7.62;100.00;101618.59;5062133;28;20031;-62
2023/03/29 00:44:55;;;;;;;4.80;2.50;;;;;;;7.66;100.00;101613.31;5065990;28;20027;-61
2023/03/29 00:47:31;;;;;;;3.60;2.72;;;;;;;7.61;100.00;101609.00;5064638;28;20021;-60
2023/03/29 00:50:02;;;;;;;4.95;2.70;;;;;;;7.57;100.00;101606.41;5064161;28;20379;-61
2023/03/29 00:52:29;;;;;;;5.47;2.72;;;;;;;7.50;100.00;101599.47;5065315;28;20101;-63
2023/03/29 00:54:57;;;;;;;3.55;2.67;;;;;;;7.46;100.00;101602.97;5063556;28;20395;-59
2023/03/29 00:57:22;;;;;;;7.32;3.10;;;;;;;7.56;100.00;101594.13;5046780;28;20044;-58
2023/03/29 00:59:50;;;;;;;5.53;2.67;;;;;;;7.55;100.00;101592.41;5046761;28;20616;-61
2023/03/29 01:02:20;;;;;;;3.85;2.85;;;;;;;7.63;100.00;101594.09;5063327;28;20486;-61
2023/03/29 01:04:50;;;;;;;6.28;3.05;;;;;;;7.64;100.00;101593.19;5048247;28;20029;-55
2023/03/29 01:07:34;;;;;;;4.95;3.13;;;;;;;7.63;100.00;101591.47;5105190;22;20053;-61
2023/03/29 01:10:09;;;;;;;5.43;3.13;;;;;;;7.65;100.00;101590.56;5030723;28;20033;-60
2023/03/29 01:12:40;;;;;;;5.78;2.80;;;;;;;7.66;100.00;101589.69;5013511;28;20034;-59
2023/03/29 01:15:09;;;;;;;4.57;2.65;;;;;;;7.67;100.00;101580.94;5029034;28;20096;-59
2023/03/29 01:17:34;;;;;;;3.70;3.05;;;;;;;7.65;100.00;101581.84;5017002;28;20025;-61
2023/03/29 01:20:09;;;;;;;3.65;2.65;;;;;;;7.67;100.00;101582.69;5024262;28;20071;-60
2023/03/29 01:23:12;;;;;;;3.67;2.50;;;;;;;7.75;100.00;101586.13;5012568;28;20048;-61
2023/03/29 01:25:52;;;;;;;5.53;3.05;;;;;;;7.82;100.00;101579.03;5044441;28;20029;-61
2023/03/29 01:28:21;;;;;;;7.18;3.17;;;;;;;7.77;100.00;101576.44;5020414;28;20017;-61
2023/03/29 01:30:53;;;;;;;5.05;3.00;;;;;;;7.82;100.00;101569.41;5015060;28;20387;-59
2023/03/29 01:33:24;;;;;;;5.25;3.03;;;;;;;7.84;100.00;101567.66;5005951;28;20252;-60
2023/03/29 01:35:56;;;;;;;6.65;3.20;;;;;;;7.83;100.00;101571.16;4984368;28;20025;-61
2023/03/29 01:38:35;;;;;;;7.22;2.80;;;;;;;7.84;100.00;101564.16;5011403;28;20622;-62
2023/03/29 01:41:01;;;;;;;7.35;3.15;;;;;;;7.93;100.00;101561.44;5028620;28;20032;-62
2023/03/29 01:43:34;;;;;;;4.82;3.00;;;;;;;8.01;100.00;101558.69;5034216;28;20112;-56
2023/03/29 01:46:20;;;;;;;11.73;3.78;;;;;;;8.01;100.00;101556.06;5023949;28;20391;-58
2023/03/29 01:49:23;;;;;;;10.00;3.40;;;;;;;8.07;100.00;101558.63;5020802;28;20029;-60
2023/03/29 01:51:54;;;;;;;7.65;3.45;;;;;;;8.09;100.00;101556.88;5015790;28;20523;-62
2023/03/29 01:54:51;;;;;;;7.72;3.53;;;;;;;8.09;100.00;101556.88;5005824;28;20281;-62
2023/03/29 01:57:18;;;;;;;7.07;2.85;;;;;;;8.07;100.00;101550.75;4996026;28;20048;-61
2023/03/29 01:59:44;;;;;;;8.20;3.63;;;;;;;8.12;100.00;101553.34;5006598;28;20617;-61
2023/03/29 02:02:13;;;;;;;6.38;3.22;;;;;;;8.12;100.00;101544.59;5018627;28;20481;-59
2023/03/29 02:04:44;;;;;;;4.72;3.53;;;;;;;8.09;100.00;101541.13;5007705;28;20179;-60
2023/03/29 02:07:10;;;;;;;5.13;3.25;;;;;;;8.10;100.00;101542.00;5010863;28;20137;-60
2023/03/29 02:09:36;;;;;;;14.25;3.95;;;;;;;8.18;100.00;101544.50;5033326;28;20108;-62
2023/03/29 02:12:03;;;;;;;6.40;3.70;;;;;;;8.25;100.00;101540.06;5005276;28;20078;-62
2023/03/29 02:14:29;;;;;;;6.70;3.35;;;;;;;8.17;100.00;101537.53;5030044;28;20047;-58
2023/03/29 02:16:54;;;;;;;6.45;2.92;;;;;;;8.17;100.00;101534.91;5025064;28;20013;-60
2023/03/29 02:19:22;;;;;;;5.63;3.17;;;;;;;8.20;100.00;101521.75;5028711;28;20021;-61
2023/03/29 02:22:07;;;;;;;8.07;3.75;;;;;;;8.18;100.00;101526.13;5032221;28;20317;-63
2023/03/29 02:24:33;;;;;;;6.28;3.40;;;;;;;8.18;100.00;101526.13;5006010;28;20736;-61
2023/03/29 02:27:00;;;;;;;6.30;3.80;;;;;;;8.19;100.00;101517.38;5036112;28;20115;-61
2023/03/29 02:29:26;;;;;;;7.53;3.63;;;;;;;8.22;100.00;101519.97;5025194;28;20384;-61
2023/03/29 02:32:16;;;;;;;7.78;3.17;;;;;;;8.22;100.00;101512.94;5023398;28;20053;-58
2023/03/29 02:34:49;;;;;;;6.78;3.42;;;;;;;8.21;100.00;101518.22;5020127;28;20025;-62
2023/03/29 02:37:17;;;;;;;5.00;3.20;;;;;;;8.25;100.00;101512.03;5005768;28;20317;-59
2023/03/29 02:39:43;;;;;;;4.88;3.08;;;;;;;8.22;100.00;101519.97;5007103;28;20022;-60
2023/03/29 02:42:09;;;;;;;7.75;3.28;;;;;;;8.21;100.00;101505.97;5041607;28;20363;-59
2023/03/29 02:44:38;;;;;;;9.40;3.58;;;;;;;8.18;100.00;101507.75;5010410;28;20112;-61
2023/03/29 02:47:13;;;;;;;5.22;3.20;;;;;;;8.21;100.00;101500.72;5009611;28;20033;-63
2023/03/29 02:49:39;;;;;;;9.68;3.30;;;;;;;8.24;100.00;101497.19;5039686;28;20033;-58
2023/03/29 02:52:18;;;;;;;7.15;3.75;;;;;;;8.22;100.00;101489.31;5027234;28;20033;-62
2023/03/29 02:54:45;;;;;;;6.60;3.47;;;;;;;8.24;100.00;101486.69;5023612;28;20127;-62
2023/03/29 02:57:11;;;;;;;9.90;3.78;;;;;;;8.28;100.00;101488.38;5008835;28;20029;-59
2023/03/29 02:59:37;;;;;;;7.03;3.70;;;;;;;8.22;100.00;101485.84;5030843;28;20036;-62
2023/03/29 03:02:04;;;;;;;6.68;3.30;;;;;;;8.18;100.00;101486.75;5037274;28;20030;-63
2023/03/29 03:04:30;;;;;;;6.68;3.90;;;;;;;8.19;100.00;101489.34;5027987;28;20060;-63
2023/03/29 03:06:55;;;;;;;5.18;3.33;;;;;;;8.22;100.00;101489.31;5041115;28;20034;-59
2023/03/29 03:09:20;;;;;;;9.07;4.00;;;;;;;8.25;100.00;101491.03;5027983;28;20099;-62
2023/03/29 03:11:46;;;;;;;9.32;4.43;;;;;;;8.25;100.00;101480.53;5033830;28;20452;-63
2023/03/29 03:14:11;;;;;;;9.18;3.35;;;;;;;8.29;100.00;101479.63;5047466;28;20067;-60
2023/03/29 03:16:37;;;;;;;6.63;3.45;;;;;;;8.30;100.00;101476.09;5045093;28;20037;-61
2023/03/29 03:19:02;;;;;;;7.95;3.63;;;;;;;8.33;100.00;101480.44;5040905;28;20032;-61
2023/03/29 03:21:28;;;;;;;7.40;3.88;;;;;;;8.31;100.00;101472.56;5026787;28;20360;-61
2023/03/29 03:23:54;;;;;;;10.38;3.92;;;;;;;8.27;100.00;101468.25;5010416;28;20122;-61
2023/03/29 03:26:20;;;;;;;10.23;3.83;;;;;;;8.26;100.00;101479.66;5038715;28;20079;-62
2023/03/29 03:28:45;;;;;;;7.13;3.25;;;;;;;8.33;100.00;101476.06;5026374;28;20021;-62
2023/03/29 03:31:12;;;;;;;9.18;4.20;;;;;;;8.33;100.00;101467.28;5027390;28;20040;-61
2023/03/29 03:33:39;;;;;;;8.15;4.03;;;;;;;8.32;100.00;101466.44;5045599;28;20025;-62
2023/03/29 03:36:06;;;;;;;8.35;3.67;;;;;;;8.36;100.00;101469.03;5046338;28;20325;-62
2023/03/29 03:38:32;;;;;;;8.18;3.35;;;;;;;8.34;100.00;101463.81;5043881;28;20471;-57
2023/03/29 03:40:59;;;;;;;9.10;4.00;;;;;;;8.43;100.00;101457.53;5044836;28;20479;-59
2023/03/29 03:43:24;;;;;;;8.50;4.15;;;;;;;8.40;100.00;101463.69;5046798;28;20047;-61
2023/03/29 03:45:50;;;;;;;8.05;3.70;;;;;;;8.43;100.00;101455.75;5046495;28;20468;-62
2023/03/29 03:48:15;;;;;;;10.40;3.92;;;;;;;8.42;100.00;101463.66;5024956;28;20446;-59
2023/03/29 03:50:41;;;;;;;7.00;4.00;;;;;;;8.38;100.00;101468.13;5025768;28;20029;-62
2023/03/29 03:53:07;;;;;;;8.52;4.40;;;;;;;8.42;100.00;101468.91;5025547;28;20057;-59
2023/03/29 03:55:33;;;;;;;9.02;3.83;;;;;;;8.40;100.00;101473.34;5039059;28;20029;-60
2023/03/29 03:57:58;;;;;;;6.97;4.03;;;;;;;8.40;100.00;101468.94;5026690;28;20029;-58
2023/03/29 04:00:24;;;;;;;9.40;4.40;;;;;;;8.39;100.00;101467.22;5030989;28;20029;-61
2023/03/29 04:02:52;;;;;;;5.47;3.95;;;;;;;8.42;100.00;101458.41;5046427;28;20040;-62
2023/03/29 04:05:18;;;;;;;10.82;3.92;;;;;;;8.42;100.00;101458.41;5045878;28;20021;-59
2023/03/29 04:07:44;;;;;;;6.70;3.85;;;;;;;8.50;100.00;101472.31;5043702;28;20048;-63
2023/03/29 04:10:09;;;;;;;11.05;4.15;;;;;;;8.55;100.00;101461.78;5034995;28;20060;-62
2023/03/29 04:12:35;;;;;;;10.23;4.10;;;;;;;8.50;100.00;101458.31;5025753;28;20026;-62
2023/03/29 04:15:01;;;;;;;11.95;4.15;;;;;;;8.56;100.00;101455.63;5010765;28;20482;-63
2023/03/29 04:17:26;;;;;;;7.50;4.15;;;;;;;8.56;100.00;101447.75;5046458;28;20284;-59
2023/03/29 04:19:51;;;;;;;9.48;4.47;;;;;;;8.50;100.00;101453.94;5046073;28;20059;-59
2023/03/29 04:22:17;;;;;;;8.38;4.60;;;;;;;8.57;100.00;101441.59;5030280;28;20063;-64
2023/03/29 04:24:42;;;;;;;9.18;4.53;;;;;;;8.56;100.00;101440.75;5024215;28;20056;-61
2023/03/29 04:27:08;;;;;;;7.90;4.40;;;;;;;8.59;100.00;101440.69;5031888;28;20051;-61
2023/03/29 04:29:33;;;;;;;10.07;4.68;;;;;;;8.54;100.00;101442.50;5047044;28;20025;-62
2023/03/29 04:31:58;;;;;;;9.30;4.53;;;;;;;8.58;100.00;101440.72;5046197;28;20336;-61
2023/03/29 04:34:24;;;;;;;7.75;4.60;;;;;;;8.56;100.00;101427.59;5046552;28;20097;-61
2023/03/29 04:36:49;;;;;;;8.48;4.05;;;;;;;8.60;100.00;101431.03;5046226;28;20070;-61
2023/03/29 04:39:16;;;;;;;5.90;4.05;;;;;;;8.57;100.00;101429.34;5028030;28;20029;-63
2023/03/29 04:41:42;;;;;;;8.02;4.40;;;;;;;8.58;100.00;101427.59;5045466;28;20023;-62
2023/03/29 04:44:08;;;;;;;8.23;4.25;;;;;;;8.59;100.00;101431.94;5028355;28;20025;-60
2023/03/29 04:46:33;;;;;;;7.05;4.57;;;;;;;8.58;100.00;101433.69;5046165;28;20086;-62
2023/03/29 04:48:58;;;;;;;8.00;4.45;;;;;;;8.68;100.00;101431.78;5045784;28;20257;-59
2023/03/29 04:51:24;;;;;;;5.43;3.88;;;;;;;8.62;100.00;101428.38;5022426;28;20029;-60
2023/03/29 04:53:50;;;;;;;7.32;4.57;;;;;;;8.64;100.00;101426.59;5045859;28;20025;-62
2023/03/29 04:56:16;;;;;;;8.38;4.40;;;;;;;8.64;100.00;101427.47;5026780;28;20059;-64
2023/03/29 04:58:43;;;;;;;7.25;4.07;;;;;;;8.67;100.00;101423.94;5046167;28;20056;-58
2023/03/29 05:01:08;;;;;;;8.15;4.70;;;;;;;8.64;100.00;101418.72;5038291;28;20033;-60
2023/03/29 05:03:34;;;;;;;9.02;4.35;;;;;;;8.67;100.00;101429.19;5044506;28;20033;-62
2023/03/29 05:06:08;;;;;;;7.70;5.35;;;;;;;8.65;100.00;101423.97;5044109;28;20044;-62
2023/03/29 05:08:37;;;;;;;6.55;4.38;;;;;;;8.70;100.00;101426.50;5042132;28;20356;-63
2023/03/29 05:11:05;;;;;;;8.77;4.60;;;;;;;8.71;100.00;101428.25;5036463;28;20596;-62
2023/03/29 05:13:30;;;;;;;7.75;4.43;;;;;;;8.73;100.00;101434.31;5025280;28;20370;-62
2023/03/29 05:15:56;;;;;;;6.25;4.30;;;;;;;8.78;100.00;101429.00;5025756;28;20048;-59
2023/03/29 05:18:21;;;;;;;8.68;4.63;;;;;;;8.76;100.00;101441.31;5037616;28;20021;-61
2023/03/29 05:20:46;;;;;;;8.00;4.40;;;;;;;8.75;100.00;101439.53;5025298;28;20041;-63
2023/03/29 05:23:12;;;;;;;10.07;5.28;;;;;;;8.78;100.00;101450.88;5024425;28;20302;-61
2023/03/29 05:25:37;;;;;;;13.10;5.50;;;;;;;8.77;100.00;101443.03;5038453;28;20037;-61
2023/03/29 05:28:03;;;;;;;7.25;4.63;;;;;;;8.82;100.00;101447.31;5023912;28;20029;-61
2023/03/29 05:30:28;;;;;;;7.57;5.05;;;;;;;8.79;100.00;101442.09;5025215;28;20037;-60
2023/03/29 05:32:53;;;;;;;11.48;4.60;;;;;;;8.83;100.00;101449.06;5039096;28;20021;-59
2023/03/29 05:35:19;;;;;;;8.93;4.68;;;;;;;8.85;100.00;101442.00;5023922;28;20025;-62
2023/03/29 05:37:46;;;;;;;10.27;4.65;;;;;;;8.91;100.00;101440.19;5024439;28;20037;-59
2023/03/29 05:40:12;;;;;;;8.55;4.75;;;;;;;8.93;100.00;101438.38;5038157;28;20071;-63
2023/03/29 05:42:37;;;;;;;9.20;4.70;;;;;;;8.92;100.00;101444.53;5023765;28;20619;-63
2023/03/29 05:45:03;;;;;;;10.90;4.68;;;;;;;8.94;100.00;101437.50;5024511;28;20021;-59
2023/03/29 05:47:29;;;;;;;8.55;4.72;;;;;;;8.96;100.00;101448.84;5042268;28;20408;-60
2023/03/29 05:49:54;;;;;;;6.57;4.93;;;;;;;8.93;100.00;101447.13;5044878;28;20059;-60
2023/03/29 05:52:19;;;;;;;8.05;4.75;;;;;;;8.98;100.00;101447.91;5043936;28;20032;-60
2023/03/29 05:54:45;;;;;;;10.35;4.95;;;;;;;9.03;100.00;101445.19;5040927;28;20463;-63
2023/03/29 05:57:10;;;;;;;6.93;4.55;;;;;;;9.04;100.00;101440.81;5026798;28;20072;-64
2023/03/29 05:59:37;;;;;;;9.13;4.63;;;;;;;9.06;100.00;101442.53;5006474;28;20013;-61
2023/03/29 06:02:03;;;;;;;6.75;4.45;;;;;;;9.09;100.00;101431.06;5034941;28;20387;-62
2023/03/29 06:04:29;;;;;;;12.43;5.30;;;;;;;9.13;100.00;101442.41;5026762;28;20079;-62
2023/03/29 06:06:55;;;;;;;12.77;5.28;;;;;;;9.22;100.00;101440.47;5023285;28;20045;-62
2023/03/29 06:09:21;;;;;;;13.60;5.25;;;;;;;9.17;100.00;101451.97;5036615;28;20061;-58
2023/03/29 06:11:46;;;;;;;12.35;6.00;;;;;;;9.15;100.00;101444.13;5026676;28;20025;-63
2023/03/29 06:14:15;;;;;;;10.68;5.15;;;;;;;9.16;100.00;101445.88;5022399;28;20295;-60
2023/03/29 06:16:42;;;;;;;11.67;5.50;;;;;;;9.25;100.00;101449.22;5033138;28;20495;-61
2023/03/29 06:19:07;;;;;;;9.30;5.32;;;;;;;9.13;100.00;101445.91;5026256;28;20094;-58
2023/03/29 06:21:32;;;;;;;10.52;5.45;;;;;;;9.26;100.00;101437.78;5040950;28;20026;-61
2023/03/29 06:23:58;;;;;;;11.27;4.72;;;;;;;9.34;100.00;101441.16;5043797;28;20037;-62
2023/03/29 06:26:26;;;;;;;12.80;5.57;;;;;;;9.36;100.00;101434.09;5042724;28;20468;-59
2023/03/29 06:28:52;;;;;;;12.55;5.60;;;;;;;9.37;100.00;101435.84;5044316;28;20025;-59
2023/03/29 06:31:18;;;;;;;8.88;5.10;;;;;;;9.45;100.00;101438.31;5044109;28;20017;-62
2023/03/29 06:33:44;;;;;;;9.10;5.60;;;;;;;9.51;100.00;101440.81;5043473;28;20317;-65
2023/03/29 06:36:10;;;;;;;10.45;5.70;;;;;;;9.53;100.00;101453.94;5044623;28;20481;-58
2023/03/29 06:38:36;;;;;;;10.38;5.68;;;;;;;9.65;100.00;101448.44;5026801;28;20063;-61
2023/03/29 06:41:06;;;;;;;13.30;5.82;;;;;;;9.67;100.00;101448.41;5043881;28;20028;-62
2023/03/29 06:43:32;;;;;;;13.02;5.97;;;;;;;9.68;100.00;101453.66;5044394;28;20029;-61
2023/03/29 06:45:57;;;;;;;10.43;5.22;;;;;;;9.73;100.00;101453.56;5044302;28;20078;-62
2023/03/29 06:48:23;;;;;;;8.27;5.10;;;;;;;9.84;100.00;101456.81;5044100;28;20025;-61
2023/03/29 06:50:49;;;;;;;10.82;5.60;;;;;;;9.86;100.00;101457.66;5038885;28;20143;-60
2023/03/29 06:53:17;;;;;;;10.75;5.70;;;;;;;9.92;100.00;101455.78;5037384;28;20033;-61
2023/03/29 06:55:43;;;;;;;11.55;6.35;;;;;;;9.86;100.00;101465.56;5024124;28;20021;-62
2023/03/29 06:58:09;;;;;;;10.75;5.28;;;;;;;9.98;100.00;101464.44;5039212;28;20029;-60
2023/03/29 07:00:37;;;;;;;13.75;5.53;;;;;;;10.01;100.00;101465.25;5015299;28;20021;-64
2023/03/29 07:03:05;;;;;;;13.50;5.72;;;;;;;10.10;100.00;101470.34;5032730;28;20472;-62
2023/03/29 07:05:31;;;;;;;11.30;6.10;;;;;;;10.02;100.00;101473.13;5022676;28;20234;-63
2023/03/29 07:07:59;;;;;;;15.32;5.80;;;;;;;10.11;100.00;101467.66;5027307;28;20033;-61
2023/03/29 07:10:36;;;;;;;9.32;5.68;;;;;;;10.11;100.00;101467.66;5033362;28;20022;-62
2023/03/29 07:13:04;;;;;;;11.57;6.53;;;;;;;10.19;100.00;101469.25;5023482;28;20034;-62
2023/03/29 07:15:30;;;;;;;14.88;6.47;;;;;;;10.18;100.00;101470.16;5026260;28;20098;-62
2023/03/29 07:17:56;;;;;;;11.30;6.05;;;;;;;10.27;100.00;101467.34;5044057;28;20107;-59
2023/03/29 07:20:22;;;;;;;17.08;6.32;;;;;;;10.26;100.00;101464.72;5043211;28;20025;-61
2023/03/29 07:22:49;;;;;;;11.50;5.72;;;;;;;10.30;100.00;101466.38;5039011;28;20025;-59
2023/03/29 07:25:16;;;;;;;14.20;5.75;;;;;;;10.33;100.00;101469.81;5029831;28;20050;-59
2023/03/29 07:27:41;;;;;;;12.13;6.35;;;;;;;10.42;100.00;101475.78;5025635;28;20021;-61
2023/03/29 07:30:09;;;;;;;9.40;6.07;;;;;;;10.47;100.00;101476.56;5032695;28;20032;-62
2023/03/29 07:32:36;;;;;;;14.38;6.25;;;;;;;10.44;100.00;101474.84;5033433;28;20033;-58
2023/03/29 07:35:04;;;;;;;16.02;6.57;;;;;;;10.57;100.00;101478.06;5026383;28;20052;-62
2023/03/29 07:37:30;;;;;;;19.50;7.00;;;;;;;10.62;100.00;101477.97;5033054;28;20033;-60
2023/03/29 07:39:55;;;;;;;16.42;7.30;;;;;;;10.77;100.00;101474.09;5016256;28;20084;-63
2023/03/29 07:42:21;;;;;;;14.05;6.30;;;;;;;10.80;100.00;101470.50;5025589;28;20026;-61
2023/03/29 07:44:47;;;;;;;16.02;6.43;;;;;;;10.92;100.00;101475.50;5032238;28;20025;-58
2023/03/29 07:47:13;;;;;;;10.75;6.65;;;;;;;10.95;100.00;101469.25;5046234;28;20124;-61
2023/03/29 07:49:38;;;;;;;13.48;6.72;;;;;;;10.96;100.00;101463.94;5046073;28;20076;-62
2023/03/29 07:52:04;;;;;;;13.77;6.53;;;;;;;10.93;100.00;101464.03;5024614;28;20075;-60
2023/03/29 07:54:31;;;;;;;15.30;6.88;;;;;;;11.09;100.00;101472.44;5038460;28;20030;-59
2023/03/29 07:56:57;;;;;;;12.52;6.57;;;;;;;11.22;100.00;101472.09;5025934;28;20412;-63
2023/03/29 07:59:22;;;;;;;15.02;6.70;;;;;;;11.22;100.00;101474.72;5029097;28;20025;-62
2023/03/29 08:01:47;;;;;;;12.10;5.68;;;;;;;11.44;100.00;101467.09;5045916;28;20063;-58
2023/03/29 08:04:13;;;;;;;12.55;6.45;;;;;;;11.24;100.00;101470.28;5046060;28;20033;-61
2023/03/29 08:06:38;;;;;;;12.55;7.35;;;;;;;11.35;100.00;101472.66;5042170;28;20241;-62
2023/03/29 08:09:03;;;;;;;15.07;6.57;;;;;;;11.36;100.00;101475.25;5045983;28;20021;-61
2023/03/29 08:11:29;;;;;;;14.85;7.22;;;;;;;11.60;100.00;101472.84;5045872;28;20031;-63
2023/03/29 08:13:54;;;;;;;14.07;7.18;;;;;;;11.82;100.00;101471.34;5041784;28;20033;-59
2023/03/29 08:16:19;;;;;;;12.20;7.32;;;;;;;11.77;100.00;101467.97;5037104;28;20033;-60
2023/03/29 08:18:45;;;;;;;12.90;7.30;;;;;;;12.02;100.00;101460.22;5026239;28;20021;-64
2023/03/29 08:21:10;;;;;;;14.60;7.10;;;;;;;11.99;100.00;101457.66;5039738;28;20033;-64
2023/03/29 08:23:35;;;;;;;15.15;6.60;;;;;;;12.24;100.00;101452.53;5046879;28;20155;-60
2023/03/29 08:26:01;;;;;;;14.98;7.57;;;;;;;12.42;100.00;101457.25;5040913;28;20029;-63
2023/03/29 08:28:26;;;;;;;14.15;7.50;;;;;;;12.42;100.00;101454.63;5036008;28;20029;-62
2023/03/29 08:30:52;;;;;;;18.58;8.27;;;;;;;12.42;100.00;101454.63;5026629;28;20464;-58
2023/03/29 08:33:17;;;;;;;15.45;7.40;;;;;;;12.49;100.00;101459.66;5038077;28;20030;-62
2023/03/29 08:35:43;;;;;;;17.02;7.50;;;;;;;12.51;100.00;101462.25;5025786;28;20372;-63
2023/03/29 08:38:09;;;;;;;20.90;9.13;;;;;;;12.62;100.00;101457.47;5007988;28;20069;-59
2023/03/29 08:40:34;;;;;;;19.08;9.70;;;;;;;12.77;100.00;101449.97;5043901;28;20055;-61
2023/03/29 08:43:10;;;;;;;23.25;9.15;;;;;;;12.98;100.00;101450.16;5045277;28;20096;-64
2023/03/29 08:46:16;;;;;;;18.83;9.73;;;;;;;13.18;100.00;101459.19;5045036;28;20029;-60
2023/03/29 08:48:51;;;;;;;19.90;9.80;;;;;;;13.42;100.00;101451.31;5037541;28;20091;-63
2023/03/29 08:51:22;;;;;;;23.92;10.02;;;;;;;13.62;100.00;101459.41;5007704;28;20021;-59
2023/03/29 08:54:11;;;;;;;21.30;11.13;;;;;;;13.49;100.00;101464.25;5027802;28;20044;-61
2023/03/29 08:56:37;;;;;;;24.17;11.10;;;;;;;13.50;100.00;101457.19;5036684;28;20407;-62
2023/03/29 08:59:03;;;;;;;25.02;10.45;;;;;;;13.52;100.00;101458.03;5009573;28;20079;-62
2023/03/29 09:01:33;;;;;;;18.00;10.55;;;;;;;13.64;100.00;101456.72;5015474;28;20063;-59
2023/03/29 09:04:19;;;;;;;23.27;11.25;;;;;;;13.77;100.00;101451.81;5028082;28;20116;-62
2023/03/29 09:06:45;;;;;;;21.70;12.27;;;;;;;13.68;100.00;101452.13;5026725;28;20041;-59
2023/03/29 09:09:13;;;;;;;28.20;12.57;;;;;;;13.67;100.00;101459.25;5040748;28;20063;-59
2023/03/29 09:11:57;;;;;;;24.15;11.77;;;;;;;13.43;100.00;101468.91;5027940;28;20492;-62
2023/03/29 09:14:48;;;;;;;20.23;10.90;;;;;;;13.63;100.00;101466.44;5005820;28;20706;-62
2023/03/29 09:17:32;;;;;;;20.63;10.02;;;;;;;13.63;100.00;101454.97;5041574;28;20033;-61
2023/03/29 09:20:16;;;;;;;20.88;9.98;;;;;;;13.58;100.00;101448.97;5026921;28;20029;-58
2023/03/29 09:23:09;;;;;;;18.33;10.15;;;;;;;13.53;100.00;101459.75;5039710;28;20041;-60
2023/03/29 09:25:43;;;;;;;21.83;10.23;;;;;;;13.44;100.00;101465.31;5025768;28;20026;-63
2023/03/29 09:28:13;;;;;;;20.77;11.27;;;;;;;13.58;100.00;101464.88;5023957;28;20392;-60
2023/03/29 09:30:41;;;;;;;14.85;9.45;;;;;;;13.37;100.00;101465.53;5013568;28;20064;-61
2023/03/29 09:33:06;;;;;;;20.13;9.25;;;;;;;13.53;100.00;101462.38;5026020;28;20106;-61
2023/03/29 09:35:41;;;;;;;17.77;9.63;;;;;;;13.55;100.00;101462.34;5044107;28;20108;-59
2023/03/29 09:38:10;;;;;;;13.65;8.18;;;;;;;13.56;100.00;101472.88;5040529;28;20033;-60
2023/03/29 09:40:46;;;;;;;17.77;9.27;;;;;;;13.52;100.00;101468.63;5021937;28;20022;-63
2023/03/29 09:43:17;;;;;;;16.25;8.00;;;;;;;13.61;100.00;101473.53;5015531;28;20021;-63
2023/03/29 09:45:52;;;;;;;12.57;8.30;;;;;;;13.54;100.00;101476.50;5023011;28;20275;-62
2023/03/29 09:48:18;;;;;;;14.60;8.45;;;;;;;13.58;100.00;101473.66;5004468;28;20120;-62
2023/03/29 09:50:46;;;;;;;17.27;8.30;;;;;;;13.63;100.00;101479.66;5026477;28;20056;-62
2023/03/29 09:53:13;;;;;;;14.73;10.05;;;;;;;13.64;100.00;101468.13;5009482;28;20029;-63
2023/03/29 09:55:39;;;;;;;17.65;9.82;;;;;;;13.62;100.00;101458.53;5006645;28;20022;-60
2023/03/29 09:58:31;;;;;;;18.35;8.57;;;;;;;13.49;100.00;101469.56;5037210;28;20364;-62
2023/03/29 10:00:59;;;;;;;19.83;9.73;;;;;;;13.38;100.00;101461.13;5041648;28;20434;-62
2023/03/29 10:03:27;;;;;;;21.05;9.80;;;;;;;13.23;100.00;101462.53;5045248;28;20021;-59
2023/03/29 10:05:55;;;;;;;17.95;9.50;;;;;;;13.46;100.00;101466.16;5044819;28;20075;-59
2023/03/29 10:08:34;;;;;;;19.10;10.37;;;;;;;13.40;100.00;101465.44;5026726;28;20047;-61
2023/03/29 10:11:03;;;;;;;13.05;9.30;;;;;;;13.22;100.00;101460.81;5025626;28;20017;-61
2023/03/29 10:13:31;;;;;;;16.92;9.70;;;;;;;13.32;100.00;101462.22;5039851;28;20025;-58
2023/03/29 10:16:03;;;;;;;13.48;8.95;;;;;;;13.30;100.00;101466.69;5007306;28;20018;-64
2023/03/29 10:18:30;;;;;;;15.50;9.60;;;;;;;13.30;100.00;101457.91;5023642;28;20053;-62
2023/03/29 10:21:01;;;;;;;14.45;9.68;;;;;;;13.52;100.00;101463.31;5017408;28;20029;-61
2023/03/29 10:23:34;;;;;;;17.13;9.93;;;;;;;13.62;100.00;101446.16;5024588;28;20041;-62
2023/03/29 10:26:03;;;;;;;14.93;9.27;;;;;;;13.54;100.00;101453.50;5022213;28;20408;-61
2023/03/29 10:28:29;;;;;;;12.20;7.80;;;;;;;13.82;100.00;101455.13;5020628;28;20037;-60
2023/03/29 10:30:58;;;;;;;12.75;7.55;;;;;;;13.69;100.00;101454.72;5006688;28;20330;-61
2023/03/29 10:33:24;;;;;;;9.38;6.90;;;;;;;13.59;100.00;101440.97;5023263;28;20029;-60
2023/03/29 10:35:49;;;;;;;11.18;6.05;;;;;;;13.56;100.00;101432.28;5020004;28;20040;-60
2023/03/29 10:38:17;;;;;;;7.45;5.45;;;;;;;13.64;100.00;101425.78;5024052;28;20050;-61
2023/03/29 10:40:45;;;;;;;9.88;6.90;;;;;;;13.75;100.00;101432.44;5021424;28;20072;-62
2023/03/29 10:43:11;;;;;;;10.10;7.35;;;;;;;13.67;100.00;101423.94;5036400;28;20049;-61
2023/03/29 10:45:37;;;;;;;12.00;8.25;;;;;;;13.54;100.00;101418.25;5024022;28;20067;-61
2023/03/29 10:48:05;;;;;;;10.23;7.70;;;;;;;13.85;100.00;101415.28;5023563;28;20193;-61
2023/03/29 10:50:33;;;;;;;12.30;8.30;;;;;;;13.99;100.00;101411.22;5024456;28;20584;-63
2023/03/29 10:52:59;;;;;;;15.45;9.18;;;;;;;13.72;100.00;101419.31;5024330;28;20039;-60
2023/03/29 10:55:31;;;;;;;13.45;8.35;;;;;;;13.97;100.00;101410.44;5038263;28;20124;-58
2023/03/29 10:58:06;;;;;;;14.68;9.63;;;;;;;13.99;100.00;101405.94;5025910;28;20036;-63
2023/03/29 11:00:42;;;;;;;15.48;9.75;;;;;;;13.79;100.00;101404.94;5024126;28;20165;-62
2023/03/29 11:03:20;;;;;;;16.13;9.60;;;;;;;14.07;100.00;101403.88;5022875;28;20423;-61
2023/03/29 11:06:13;;;;;;;16.08;8.88;;;;;;;14.27;100.00;101396.91;5027512;28;20036;-64
2023/03/29 11:08:56;;;;;;;16.02;10.52;;;;;;;14.26;100.00;101395.16;5032284;28;20090;-62
2023/03/29 11:11:52;;;;;;;15.95;9.52;;;;;;;14.42;100.00;101405.16;5019671;28;20078;-62
2023/03/29 11:14:55;;;;;;;14.52;8.73;;;;;;;14.33;100.00;101409.88;5026552;28;20159;-59
2023/03/29 11:17:54;;;;;;;19.55;8.77;;;;;;;14.25;100.00;101422.59;5015949;28;20114;-62
2023/03/29 11:20:37;;;;;;;12.52;8.57;;;;;;;14.23;100.00;101420.00;5046958;28;20033;-62
2023/03/29 11:23:23;;;;;;;16.75;8.50;;;;;;;14.30;100.00;101427.72;5023522;28;20536;-62
2023/03/29 11:26:06;;;;;;;15.65;9.13;;;;;;;14.44;100.00;101420.06;5031777;28;20855;-61